createdAt,value
2019-01-20T00:01:58.977Z,80.12
2019-01-20T00:04:30.515Z,80.42
2019-01-20T00:07:01.877Z,80.42
2019-01-20T00:09:33.129Z,80.01
2019-01-20T00:12:04.646Z,80.89
2019-01-20T00:14:35.832Z,80.89
2019-01-20T00:17:07.399Z,81.08
2019-01-20T00:19:38.731Z,80.95
2019-01-20T00:22:10.188Z,80.57
2019-01-20T00:24:42.093Z,80.33
2019-01-20T00:27:13.618Z,80.33
2019-01-20T00:29:45.026Z,80.78
2019-01-20T00:32:16.438Z,81.12
2019-01-20T00:34:48.013Z,81.12
2019-01-20T00:37:19.582Z,80.70
2019-01-20T00:39:50.736Z,80.66
2019-01-20T00:42:22.042Z,80.58
2019-01-20T00:44:53.405Z,81.09
2019-01-20T00:47:25.269Z,81.09
2019-01-20T00:49:57.439Z,80.84
2019-01-20T00:52:28.816Z,80.62
2019-01-20T00:55:00.252Z,80.80
2019-01-20T00:57:31.660Z,80.64
2019-01-20T01:00:04.536Z,80.61
2019-01-20T01:02:35.926Z,80.74
2019-01-20T01:05:07.872Z,80.98
2019-01-20T01:07:40.242Z,81.37
2019-01-20T01:10:12.130Z,81.37
2019-01-20T01:12:43.310Z,81.22
2019-01-20T01:15:14.609Z,80.88
2019-01-20T01:17:45.906Z,80.88
2019-01-20T01:20:18.438Z,81.08
2019-01-20T01:22:49.969Z,81.08
2019-01-20T01:25:22.050Z,80.90
2019-01-20T01:27:53.665Z,80.53
2019-01-20T01:30:26.660Z,80.65
2019-01-20T01:33:01.190Z,80.65
2019-01-20T01:35:32.398Z,81.37
2019-01-20T01:38:03.747Z,81.37
2019-01-20T01:40:34.973Z,81.16
2019-01-20T01:43:06.520Z,81.16
2019-01-20T01:45:38.144Z,81.20
2019-01-20T01:48:09.746Z,80.92
2019-01-20T01:50:40.925Z,81.82
2019-01-20T01:53:12.532Z,82.53
2019-01-20T01:55:43.608Z,82.53
2019-01-20T01:58:15.196Z,82.06
2019-01-20T02:00:46.305Z,82.22
2019-01-20T02:03:17.931Z,81.74
2019-01-20T02:05:49.021Z,81.39
2019-01-20T02:08:20.601Z,82.53
2019-01-20T02:10:51.721Z,82.05
2019-01-20T02:13:23.470Z,82.05
2019-01-20T02:15:55.336Z,81.34
2019-01-20T02:18:26.850Z,81.43
2019-01-20T02:20:57.951Z,81.11
2019-01-20T02:23:31.109Z,81.11
2019-01-20T02:26:02.498Z,80.54
2019-01-20T02:28:33.899Z,80.54
2019-01-20T02:31:05.060Z,80.01
2019-01-20T02:33:36.898Z,79.98
2019-01-20T02:36:08.617Z,80.08
2019-01-20T02:38:41.682Z,79.65
2019-01-20T02:41:12.809Z,79.65
2019-01-20T02:43:44.647Z,71.17
2019-01-20T02:46:17.346Z,71.17
2019-01-20T02:48:50.287Z,70.53
2019-01-20T02:51:21.475Z,70.18
2019-01-20T02:53:52.635Z,70.37
2019-01-20T02:56:24.057Z,70.37
2019-01-20T02:58:55.793Z,70.81
2019-01-20T03:01:27.927Z,70.76
2019-01-20T03:04:00.930Z,70.59
2019-01-20T03:06:32.230Z,70.59
2019-01-20T03:09:07.142Z,70.45
2019-01-20T03:11:38.289Z,70.45
2019-01-20T03:14:09.725Z,70.44
2019-01-20T03:16:40.892Z,70.44
2019-01-20T03:19:12.713Z,70.32
2019-01-20T03:21:44.383Z,70.63
2019-01-20T03:24:16.141Z,70.63
2019-01-20T03:26:47.447Z,70.84
2019-01-20T03:29:18.998Z,70.80
2019-01-20T03:31:50.487Z,70.80
2019-01-20T03:34:21.931Z,70.80
2019-01-20T03:36:53.491Z,71.30
2019-01-20T03:39:25.499Z,71.25
2019-01-20T03:41:56.867Z,71.37
2019-01-20T03:44:28.522Z,70.77
2019-01-20T03:47:03.472Z,71.21
2019-01-20T03:49:35.352Z,71.21
2019-01-20T03:52:06.898Z,70.61
2019-01-20T03:54:38.285Z,70.61
2019-01-20T03:57:10.124Z,70.46
2019-01-20T03:59:41.372Z,70.46
2019-01-20T04:02:13.092Z,70.25
2019-01-20T04:04:44.665Z,68.47
2019-01-20T04:07:16.129Z,68.47
2019-01-20T04:09:47.175Z,67.26
2019-01-20T04:12:20.629Z,68.15
2019-01-20T04:14:53.167Z,66.94
2019-01-20T04:17:24.982Z,64.71
2019-01-20T04:19:56.440Z,64.71
2019-01-20T04:22:27.765Z,66.30
2019-01-20T04:24:59.429Z,66.65
2019-01-20T04:27:34.021Z,66.65
2019-01-20T04:30:05.607Z,66.75
2019-01-20T04:32:39.240Z,65.92
2019-01-20T04:35:11.035Z,66.59
2019-01-20T04:37:42.928Z,65.09
2019-01-20T04:40:16.955Z,66.19
2019-01-20T04:42:48.729Z,64.27
2019-01-20T04:45:20.301Z,64.99
2019-01-20T04:47:51.537Z,64.99
2019-01-20T04:50:26.391Z,64.82
2019-01-20T04:52:58.288Z,64.43
2019-01-20T04:55:30.137Z,63.90
2019-01-20T04:58:01.938Z,62.05
2019-01-20T05:00:34.098Z,63.60
2019-01-20T05:03:05.275Z,62.96
2019-01-20T05:05:36.503Z,61.37
2019-01-20T05:08:07.726Z,61.37
2019-01-20T05:10:39.196Z,59.77
2019-01-20T05:13:10.631Z,55.45
2019-01-20T05:15:41.854Z,55.45
2019-01-20T05:18:13.020Z,55.97
2019-01-20T05:20:44.747Z,56.03
2019-01-20T05:23:16.431Z,56.03
2019-01-20T05:25:48.543Z,53.73
2019-01-20T05:28:19.864Z,54.92
2019-01-20T05:30:51.027Z,54.92
2019-01-20T05:33:22.363Z,52.99
2019-01-20T05:35:53.560Z,52.66
2019-01-20T05:38:25.624Z,51.71
2019-01-20T05:40:56.856Z,53.51
2019-01-20T05:43:28.496Z,53.51
2019-01-20T05:45:59.750Z,51.42
2019-01-20T05:48:32.880Z,51.68
2019-01-20T05:51:04.517Z,51.54
2019-01-20T05:53:36.093Z,51.87
2019-01-20T05:56:07.596Z,51.87
2019-01-20T05:58:39.379Z,50.25
2019-01-20T06:01:11.434Z,49.55
2019-01-20T06:03:43.045Z,49.55
2019-01-20T06:06:14.235Z,49.36
2019-01-20T06:08:45.825Z,46.08
2019-01-20T06:11:17.154Z,44.93
2019-01-20T06:13:48.635Z,44.93
2019-01-20T06:16:20.008Z,41.98
2019-01-20T06:18:52.490Z,41.39
2019-01-20T06:21:23.645Z,41.39
2019-01-20T06:23:55.045Z,40.12
2019-01-20T06:26:26.337Z,39.62
2019-01-20T06:29:00.846Z,39.62
2019-01-20T06:31:32.297Z,39.09
2019-01-20T06:34:04.112Z,38.12
2019-01-20T06:36:35.444Z,36.76
2019-01-20T06:39:09.509Z,39.45
2019-01-20T06:41:40.880Z,39.45
2019-01-20T06:44:12.344Z,38.94
2019-01-20T06:46:43.520Z,37.25
2019-01-20T06:49:15.256Z,37.25
2019-01-20T06:51:46.762Z,36.55
2019-01-20T06:54:19.667Z,36.25
2019-01-20T06:56:51.957Z,36.25
2019-01-20T06:59:23.920Z,37.49
2019-01-20T07:01:55.507Z,37.45
2019-01-20T07:04:26.988Z,37.46
2019-01-20T07:06:58.916Z,37.25
2019-01-20T07:09:30.379Z,37.25
2019-01-20T07:12:01.954Z,37.25
2019-01-20T07:14:33.234Z,37.08
2019-01-20T07:17:05.006Z,37.08
2019-01-20T07:19:36.309Z,36.17
2019-01-20T07:22:07.845Z,36.70
2019-01-20T07:24:39.184Z,36.95
2019-01-20T07:27:10.708Z,36.64
2019-01-20T07:29:41.871Z,36.84
2019-01-20T07:32:13.269Z,36.84
2019-01-20T07:34:44.605Z,36.34
2019-01-20T07:37:16.047Z,36.88
2019-01-20T07:39:47.474Z,37.34
2019-01-20T07:42:18.747Z,37.34
2019-01-20T07:44:49.902Z,38.41
2019-01-20T07:47:21.311Z,38.41
2019-01-20T07:49:52.627Z,38.21
2019-01-20T07:52:23.843Z,38.36
2019-01-20T07:54:55.370Z,38.74
2019-01-20T07:57:26.534Z,39.63
2019-01-20T07:59:58.016Z,39.35
2019-01-20T08:02:29.646Z,38.21
2019-01-20T08:05:00.957Z,39.86
2019-01-20T08:07:32.411Z,39.67
2019-01-20T08:10:04.087Z,39.71
2019-01-20T08:12:35.503Z,39.76
2019-01-20T08:15:09.867Z,39.76
2019-01-20T08:17:41.277Z,40.18
2019-01-20T08:20:16.005Z,40.65
2019-01-20T08:22:47.971Z,40.24
2019-01-20T08:25:19.800Z,39.66
2019-01-20T08:27:51.271Z,39.22
2019-01-20T08:30:24.622Z,38.73
2019-01-20T08:32:56.274Z,38.73
2019-01-20T08:35:28.018Z,38.96
2019-01-20T08:37:59.537Z,40.15
2019-01-20T08:40:32.499Z,38.94
2019-01-20T08:43:04.383Z,38.94
2019-01-20T08:46:22.211Z,39.38
2019-01-20T08:48:53.468Z,39.12
2019-01-20T08:51:24.804Z,39.83
2019-01-20T08:53:56.179Z,40.60
2019-01-20T08:56:27.482Z,40.22
2019-01-20T08:58:58.918Z,40.22
2019-01-20T09:01:30.679Z,41.15
2019-01-20T09:04:02.179Z,39.50
2019-01-20T09:06:33.414Z,39.50
2019-01-20T09:09:06.279Z,40.77
2019-01-20T09:11:37.661Z,40.77
2019-01-20T09:14:09.450Z,39.20
2019-01-20T09:16:40.789Z,39.69
2019-01-20T09:19:12.496Z,39.29
2019-01-20T09:21:43.998Z,39.29
2019-01-20T09:24:15.493Z,37.99
2019-01-20T09:26:47.544Z,37.99
2019-01-20T09:29:18.777Z,37.79
2019-01-20T09:31:50.405Z,37.99
2019-01-20T09:34:21.909Z,37.99
2019-01-20T09:36:53.379Z,37.03
2019-01-20T09:39:24.948Z,36.98
2019-01-20T09:41:56.326Z,36.38
2019-01-20T09:44:28.078Z,36.62
2019-01-20T09:46:59.328Z,36.62
2019-01-20T09:49:30.868Z,36.94
2019-01-20T09:52:02.393Z,36.94
2019-01-20T09:54:33.742Z,35.97
2019-01-20T09:57:05.294Z,36.49
2019-01-20T09:59:36.683Z,36.49
2019-01-20T10:02:08.335Z,36.78
2019-01-20T10:04:39.685Z,36.78
2019-01-20T10:07:11.042Z,36.83
2019-01-20T10:09:42.649Z,38.79
2019-01-20T10:12:14.177Z,39.04
2019-01-20T10:14:46.012Z,39.04
2019-01-20T10:17:17.159Z,38.96
2019-01-20T10:19:48.821Z,39.96
2019-01-20T10:22:20.479Z,40.64
2019-01-20T10:24:52.582Z,40.33
2019-01-20T10:27:23.964Z,40.79
2019-01-20T10:29:55.445Z,40.79
2019-01-20T10:32:26.729Z,41.13
2019-01-20T10:34:58.756Z,41.13
2019-01-20T10:37:34.057Z,41.55
2019-01-20T10:40:05.647Z,41.55
2019-01-20T10:42:37.198Z,41.56
2019-01-20T10:45:10.458Z,41.56
2019-01-20T10:47:41.562Z,41.65
2019-01-20T10:50:13.752Z,41.80
2019-01-20T10:52:44.920Z,41.66
2019-01-20T10:55:16.688Z,42.60
2019-01-20T10:57:48.004Z,42.60
2019-01-20T11:00:30.304Z,43.75
2019-01-20T11:03:01.513Z,43.75
2019-01-20T11:05:33.263Z,45.14
2019-01-20T11:08:05.745Z,46.46
2019-01-20T11:10:37.150Z,46.46
2019-01-20T11:13:08.675Z,47.33
2019-01-20T11:15:40.605Z,47.61
2019-01-20T11:18:12.089Z,48.08
2019-01-20T11:20:44.135Z,48.08
2019-01-20T11:23:15.635Z,48.19
2019-01-20T11:25:47.025Z,48.38
2019-01-20T11:28:18.247Z,48.92
2019-01-20T11:30:50.009Z,48.38
2019-01-20T11:33:21.680Z,48.54
2019-01-20T11:35:53.071Z,48.48
2019-01-20T11:38:24.433Z,48.48
2019-01-20T11:40:57.133Z,48.57
2019-01-20T11:43:28.441Z,49.57
2019-01-20T11:46:00.048Z,50.09
2019-01-20T11:48:31.105Z,50.09
2019-01-20T11:51:02.374Z,50.53
2019-01-20T11:53:33.608Z,51.41
2019-01-20T11:56:05.263Z,51.41
2019-01-20T11:58:36.423Z,52.16
2019-01-20T12:01:07.667Z,52.08
2019-01-20T12:03:39.364Z,52.06
2019-01-20T12:06:10.732Z,52.73
2019-01-20T12:08:43.124Z,53.35
2019-01-20T12:11:14.443Z,53.51
2019-01-20T12:13:45.955Z,54.42
2019-01-20T12:16:17.205Z,54.67
2019-01-20T12:18:48.762Z,55.09
2019-01-20T12:21:20.326Z,55.09
2019-01-20T12:23:51.980Z,55.48
2019-01-20T12:26:23.613Z,55.79
2019-01-20T12:28:54.767Z,55.93
2019-01-20T12:31:26.564Z,56.16
2019-01-20T12:33:57.669Z,56.98
2019-01-20T12:36:29.373Z,56.98
2019-01-20T12:39:00.781Z,57.21
2019-01-20T12:41:32.346Z,57.14
2019-01-20T12:44:03.725Z,57.23
2019-01-20T12:46:34.975Z,57.23
2019-01-20T12:49:06.385Z,57.62
2019-01-20T12:51:37.587Z,57.62
2019-01-20T12:54:08.888Z,57.60
2019-01-20T12:56:40.783Z,57.56
2019-01-20T12:59:12.722Z,57.77
2019-01-20T13:01:44.102Z,58.50
2019-01-20T13:04:15.498Z,58.50
2019-01-20T13:06:46.762Z,59.26
2019-01-20T13:09:17.952Z,58.09
2019-01-20T13:11:49.309Z,58.09
2019-01-20T13:14:20.718Z,58.46
2019-01-20T13:16:52.355Z,58.46
2019-01-20T13:19:23.972Z,58.59
2019-01-20T13:21:55.330Z,58.82
2019-01-20T13:24:27.245Z,59.20
2019-01-20T13:26:58.499Z,59.08
2019-01-20T13:29:30.592Z,59.08
2019-01-20T13:32:02.081Z,58.80
2019-01-20T13:34:34.515Z,58.79
2019-01-20T13:37:06.277Z,58.85
2019-01-20T13:39:37.688Z,59.02
2019-01-20T13:42:10.297Z,59.85
2019-01-20T13:44:46.196Z,59.85
2019-01-20T13:47:14.961Z,59.06
2019-01-20T13:49:46.232Z,59.06
2019-01-20T13:52:17.408Z,59.04
2019-01-20T13:54:49.064Z,59.03
2019-01-20T13:57:20.640Z,58.96
2019-01-20T13:59:54.782Z,59.32
2019-01-20T14:02:26.239Z,59.34
2019-01-20T14:04:58.220Z,59.50
2019-01-20T14:07:31.384Z,59.51
2019-01-20T14:10:02.388Z,59.59
2019-01-20T14:12:33.552Z,59.75
2019-01-20T14:15:05.198Z,59.74
2019-01-20T14:17:38.476Z,59.98
2019-01-20T14:20:21.413Z,62.43
2019-01-20T14:22:52.655Z,63.58
2019-01-20T14:25:25.030Z,64.00
2019-01-20T14:27:56.449Z,64.22
2019-01-20T14:30:29.605Z,64.83
2019-01-20T14:33:01.935Z,65.20
2019-01-20T14:35:33.440Z,65.49
2019-01-20T14:38:05.024Z,65.26
2019-01-20T14:40:36.733Z,65.26
2019-01-20T14:43:08.526Z,65.34
2019-01-20T14:45:40.152Z,64.76
2019-01-20T14:48:11.603Z,64.85
2019-01-20T14:50:42.965Z,65.12
2019-01-20T14:53:14.029Z,65.31
2019-01-20T14:55:45.620Z,66.07
2019-01-20T14:58:17.131Z,66.41
2019-01-20T15:00:49.131Z,67.02
2019-01-20T15:03:20.566Z,67.08
2019-01-20T15:05:51.890Z,67.08
2019-01-20T15:08:23.704Z,67.09
2019-01-20T15:10:55.329Z,67.96
2019-01-20T15:13:26.812Z,67.96
2019-01-20T15:16:00.583Z,68.17
2019-01-20T15:18:32.128Z,67.68
2019-01-20T15:21:04.190Z,67.68
2019-01-20T15:23:35.395Z,67.70
2019-01-20T15:26:07.652Z,67.70
2019-01-20T15:28:38.986Z,68.00
2019-01-20T15:31:10.951Z,68.08
2019-01-20T15:33:42.571Z,68.69
2019-01-20T15:36:14.090Z,68.60
2019-01-20T15:38:45.157Z,68.23
2019-01-20T15:41:17.086Z,68.48
2019-01-20T15:43:48.391Z,68.48
2019-01-20T15:46:20.153Z,68.94
2019-01-20T15:48:51.930Z,69.49
2019-01-20T15:51:23.185Z,69.49
2019-01-20T15:53:54.584Z,70.17
2019-01-20T15:56:26.757Z,70.17
2019-01-20T15:58:58.125Z,69.86
2019-01-20T16:01:29.982Z,70.34
2019-01-20T16:04:01.671Z,70.20
2019-01-20T16:06:33.284Z,70.32
2019-01-20T16:09:06.446Z,69.94
2019-01-20T16:11:38.275Z,70.40
2019-01-20T16:14:09.560Z,70.69
2019-01-20T16:16:40.886Z,70.60
2019-01-20T16:19:12.660Z,70.86
2019-01-20T16:21:44.298Z,70.89
2019-01-20T16:24:16.687Z,70.89
2019-01-20T16:26:48.883Z,71.19
2019-01-20T16:29:20.655Z,71.03
2019-01-20T16:31:52.143Z,71.03
2019-01-20T16:34:23.807Z,71.09
2019-01-20T16:36:55.160Z,71.24
2019-01-20T16:39:26.477Z,70.94
2019-01-20T16:41:58.084Z,70.56
2019-01-20T16:44:29.601Z,70.56
2019-01-20T16:47:01.369Z,71.04
2019-01-20T16:49:34.730Z,70.85
2019-01-20T16:52:06.331Z,71.51
2019-01-20T16:54:38.017Z,71.10
2019-01-20T16:57:09.424Z,71.10
2019-01-20T16:59:41.398Z,70.88
2019-01-20T17:02:12.848Z,70.72
2019-01-20T17:04:44.287Z,71.66
2019-01-20T17:07:17.174Z,71.66
2019-01-20T17:09:48.766Z,71.62
2019-01-20T17:12:21.325Z,71.90
2019-01-20T17:14:53.252Z,72.12
2019-01-20T17:17:24.591Z,72.12
2019-01-20T17:19:55.771Z,72.00
2019-01-20T17:22:26.861Z,72.23
2019-01-20T17:24:57.954Z,72.26
2019-01-20T17:27:29.470Z,72.42
2019-01-20T17:30:00.965Z,72.31
2019-01-20T17:32:35.130Z,72.45
2019-01-20T17:35:09.392Z,72.22
2019-01-20T17:37:40.788Z,72.56
2019-01-20T17:40:15.387Z,72.56
2019-01-20T17:42:47.965Z,72.55
2019-01-20T17:45:21.983Z,72.55
2019-01-20T17:47:53.317Z,72.79
2019-01-20T17:50:30.012Z,72.79
2019-01-20T17:53:02.868Z,72.51
2019-01-20T17:55:34.057Z,72.51
2019-01-20T17:58:06.681Z,73.15
2019-01-20T18:00:45.060Z,73.15
2019-01-20T18:03:16.966Z,73.68
2019-01-20T18:05:48.742Z,73.68
2019-01-20T18:08:20.194Z,73.16
2019-01-20T18:10:51.876Z,73.20
2019-01-20T18:13:23.315Z,72.34
2019-01-20T18:15:55.015Z,72.34
2019-01-20T18:18:26.555Z,71.96
2019-01-20T18:20:58.302Z,72.01
2019-01-20T18:23:29.862Z,72.01
2019-01-20T18:26:01.439Z,71.10
2019-01-20T18:28:32.937Z,69.99
2019-01-20T18:31:04.844Z,69.99
2019-01-20T18:33:35.857Z,68.13
2019-01-20T18:36:07.007Z,68.13
2019-01-20T18:38:38.678Z,67.47
2019-01-20T18:41:10.149Z,66.85
2019-01-20T18:43:41.748Z,66.85
2019-01-20T18:46:13.130Z,66.42
2019-01-20T18:48:44.267Z,66.25
2019-01-20T18:51:15.445Z,66.27
2019-01-20T18:53:47.016Z,66.83
2019-01-20T18:56:18.439Z,67.02
2019-01-20T18:58:50.286Z,67.69
2019-01-20T19:01:22.548Z,68.71
2019-01-20T19:03:54.225Z,68.71
2019-01-20T19:06:25.883Z,69.02
2019-01-20T19:08:57.782Z,69.41
2019-01-20T19:11:29.246Z,69.32
2019-01-20T19:14:00.579Z,69.32
2019-01-20T19:16:32.079Z,69.62
2019-01-20T19:19:03.399Z,69.88
2019-01-20T19:21:35.128Z,70.19
2019-01-20T19:24:06.519Z,70.23
2019-01-20T19:26:38.267Z,70.15
2019-01-20T19:29:09.795Z,70.22
2019-01-20T19:31:41.475Z,70.14
2019-01-20T19:34:12.499Z,70.35
2019-01-20T19:36:44.135Z,70.35
2019-01-20T19:39:16.483Z,70.68
2019-01-20T19:41:47.960Z,70.61
2019-01-20T19:44:19.396Z,70.86
2019-01-20T19:46:52.659Z,71.04
2019-01-20T19:51:54.808Z,71.11
2019-01-20T19:54:26.443Z,71.21
2019-01-20T19:56:58.042Z,71.04
2019-01-20T19:59:29.671Z,71.23
2019-01-20T20:02:02.252Z,71.23
2019-01-20T20:04:33.779Z,71.15
2019-01-20T20:07:05.460Z,71.40
2019-01-20T20:09:36.577Z,70.95
2019-01-20T20:12:08.330Z,70.28
2019-01-20T20:14:39.627Z,70.28
2019-01-20T20:17:10.942Z,70.74
2019-01-20T20:19:42.158Z,71.36
2019-01-20T20:22:13.878Z,71.32
2019-01-20T20:24:45.943Z,71.84
2019-01-20T20:27:17.241Z,72.17
2019-01-20T20:29:48.671Z,72.17
2019-01-20T20:32:20.071Z,72.07
2019-01-20T20:34:53.737Z,72.54
2019-01-20T20:37:24.913Z,72.43
2019-01-20T20:39:56.829Z,73.06
2019-01-20T20:42:28.375Z,73.06
2019-01-20T20:45:00.900Z,73.13
2019-01-20T20:47:32.045Z,73.11
2019-01-20T20:50:03.578Z,73.33
2019-01-20T20:53:08.078Z,73.33
2019-01-20T20:55:39.547Z,73.43
2019-01-20T20:58:11.338Z,73.16
2019-01-20T21:00:48.470Z,73.26
2019-01-20T21:03:22.552Z,73.30
2019-01-20T21:05:54.085Z,73.19
2019-01-20T21:08:25.572Z,73.06
2019-01-20T21:10:56.894Z,73.06
2019-01-20T21:13:28.597Z,73.23
2019-01-20T21:16:00.257Z,73.15
2019-01-20T21:18:31.860Z,73.06
2019-01-20T21:21:03.286Z,73.06
2019-01-20T21:23:34.738Z,73.11
2019-01-20T21:26:06.552Z,73.04
2019-01-20T21:28:37.970Z,73.13
2019-01-20T21:31:09.470Z,73.04
2019-01-20T21:33:40.970Z,72.74
2019-01-20T21:36:12.652Z,73.00
2019-01-20T21:38:44.336Z,73.00
2019-01-20T21:41:15.948Z,72.60
2019-01-20T21:43:47.340Z,72.66
2019-01-20T21:46:18.880Z,73.14
2019-01-20T21:48:50.154Z,72.83
2019-01-20T21:51:22.282Z,73.06
2019-01-20T21:53:53.769Z,73.06
2019-01-20T21:56:25.208Z,73.33
2019-01-20T21:58:56.768Z,73.39
2019-01-20T22:01:28.624Z,73.09
2019-01-20T22:04:00.873Z,72.72
2019-01-20T22:06:32.443Z,73.22
2019-01-20T22:09:03.816Z,72.75
2019-01-20T22:11:36.774Z,72.72
2019-01-20T22:14:08.243Z,72.60
2019-01-20T22:16:39.956Z,72.57
2019-01-20T22:19:11.097Z,72.11
2019-01-20T22:21:42.974Z,72.11
2019-01-20T22:24:14.343Z,72.32
2019-01-20T22:26:46.062Z,72.42
2019-01-20T22:29:17.505Z,72.42
2019-01-20T22:31:48.953Z,72.31
2019-01-20T22:34:20.643Z,72.31
2019-01-20T22:36:51.960Z,72.68
2019-01-20T22:39:23.289Z,71.92
2019-01-20T22:41:54.652Z,71.94
2019-01-20T22:44:26.060Z,71.79
2019-01-20T22:47:00.136Z,71.46
2019-01-20T22:49:33.577Z,71.46
2019-01-20T22:52:06.042Z,72.05
2019-01-20T22:54:37.238Z,71.83
2019-01-20T22:57:08.890Z,71.99
2019-01-20T22:59:40.553Z,71.99
2019-01-20T23:02:12.196Z,72.70
2019-01-20T23:04:43.552Z,72.23
2019-01-20T23:07:15.054Z,72.23
2019-01-20T23:09:46.562Z,72.20
2019-01-20T23:12:18.075Z,71.99
2019-01-20T23:14:49.733Z,71.99
2019-01-20T23:17:21.070Z,71.76
2019-01-20T23:19:52.417Z,71.78
2019-01-20T23:22:24.424Z,72.19
2019-01-20T23:24:55.755Z,71.78
2019-01-20T23:27:27.473Z,71.86
2019-01-20T23:29:58.600Z,71.61
2019-01-20T23:32:30.244Z,71.61
2019-01-20T23:35:01.884Z,71.50
2019-01-20T23:37:33.656Z,71.50
2019-01-20T23:40:06.270Z,71.53
2019-01-20T23:42:38.014Z,71.24
2019-01-20T23:45:11.192Z,71.45
2019-01-20T23:47:42.801Z,71.45
2019-01-20T23:50:14.490Z,70.59
2019-01-20T23:52:46.290Z,71.41
2019-01-20T23:55:17.639Z,71.01
2019-01-20T23:57:49.327Z,71.01
